sensor_id;sensor_type;location;lat;lon;timestamp;temperature;humidity
46159;DHT22;31888;44.512;26.104;2022-12-07T00:01:05;7.50;99.90
46159;DHT22;31888;44.512;26.104;2022-12-07T00:03:10;7.50;99.90
46159;DHT22;31888;44.512;26.104;2022-12-07T00:05:15;7.40;99.90
46159;DHT22;31888;44.512;26.104;2022-12-07T00:07:19;7.50;99.90
46159;DHT22;31888;44.512;26.104;2022-12-07T00:09:29;7.60;99.90
46159;DHT22;31888;44.512;26.104;2022-12-07T00:11:33;7.50;99.90
46159;DHT22;31888;44.512;26.104;2022-12-07T00:13:38;7.60;99.90
46159;DHT22;31888;44.512;26.104;2022-12-07T00:15:43;7.50;99.90
46159;DHT22;31888;44.512;26.104;2022-12-07T00:17:47;7.50;99.90
46159;DHT22;31888;44.512;26.104;2022-12-07T00:19:53;7.40;99.90
46159;DHT22;31888;44.512;26.104;2022-12-07T00:21:57;7.40;99.90
46159;DHT22;31888;44.512;26.104;2022-12-07T00:24:02;7.40;99.90
46159;DHT22;31888;44.512;26.104;2022-12-07T00:26:08;7.30;99.90
46159;DHT22;31888;44.512;26.104;2022-12-07T00:28:12;7.30;99.90
46159;DHT22;31888;44.512;26.104;2022-12-07T00:30:16;7.30;99.90
46159;DHT22;31888;44.512;26.104;2022-12-07T00:32:21;7.30;99.90
46159;DHT22;31888;44.512;26.104;2022-12-07T00:34:25;7.30;99.90
46159;DHT22;31888;44.512;26.104;2022-12-07T00:36:31;7.20;99.90
46159;DHT22;31888;44.512;26.104;2022-12-07T00:38:37;7.20;99.90
46159;DHT22;31888;44.512;26.104;2022-12-07T00:40:41;7.30;99.90
46159;DHT22;31888;44.512;26.104;2022-12-07T00:42:45;7.30;99.90
46159;DHT22;31888;44.512;26.104;2022-12-07T00:44:49;7.30;99.90
46159;DHT22;31888;44.512;26.104;2022-12-07T00:46:54;7.30;99.90
46159;DHT22;31888;44.512;26.104;2022-12-07T00:48:58;7.40;99.90
46159;DHT22;31888;44.512;26.104;2022-12-07T00:51:03;7.30;99.90
46159;DHT22;31888;44.512;26.104;2022-12-07T00:53:08;7.40;99.90
46159;DHT22;31888;44.512;26.104;2022-12-07T00:55:12;7.50;99.90
46159;DHT22;31888;44.512;26.104;2022-12-07T00:57:16;7.40;99.90
46159;DHT22;31888;44.512;26.104;2022-12-07T00:59:21;7.30;99.90
46159;DHT22;31888;44.512;26.104;2022-12-07T01:01:27;7.30;99.90
46159;DHT22;31888;44.512;26.104;2022-12-07T01:03:32;7.20;99.90
46159;DHT22;31888;44.512;26.104;2022-12-07T01:05:36;7.10;99.90
46159;DHT22;31888;44.512;26.104;2022-12-07T01:07:41;7.10;99.90
46159;DHT22;31888;44.512;26.104;2022-12-07T01:09:47;7.10;99.90
46159;DHT22;31888;44.512;26.104;2022-12-07T01:11:51;7.20;99.90
46159;DHT22;31888;44.512;26.104;2022-12-07T01:13:57;7.20;99.90
46159;DHT22;31888;44.512;26.104;2022-12-07T01:16:03;7.20;99.90
46159;DHT22;31888;44.512;26.104;2022-12-07T01:18:08;7.10;99.90
46159;DHT22;31888;44.512;26.104;2022-12-07T01:20:13;7.10;99.90
46159;DHT22;31888;44.512;26.104;2022-12-07T01:22:18;7.10;99.90
46159;DHT22;31888;44.512;26.104;2022-12-07T01:24:22;7.10;99.90
46159;DHT22;31888;44.512;26.104;2022-12-07T01:26:28;7.10;99.90
46159;DHT22;31888;44.512;26.104;2022-12-07T01:28:32;7.10;99.90
46159;DHT22;31888;44.512;26.104;2022-12-07T01:30:36;7.10;99.90
46159;DHT22;31888;44.512;26.104;2022-12-07T01:32:41;7.00;99.90
46159;DHT22;31888;44.512;26.104;2022-12-07T01:34:47;7.10;99.90
46159;DHT22;31888;44.512;26.104;2022-12-07T01:36:51;7.20;99.90
46159;DHT22;31888;44.512;26.104;2022-12-07T01:38:57;7.30;99.90
46159;DHT22;31888;44.512;26.104;2022-12-07T01:41:02;7.30;99.90
46159;DHT22;31888;44.512;26.104;2022-12-07T01:43:14;7.40;99.90
46159;DHT22;31888;44.512;26.104;2022-12-07T01:45:40;7.30;99.90
46159;DHT22;31888;44.512;26.104;2022-12-07T01:47:48;7.20;99.90
46159;DHT22;31888;44.512;26.104;2022-12-07T01:49:54;7.20;99.90
46159;DHT22;31888;44.512;26.104;2022-12-07T01:52:07;7.20;99.90
46159;DHT22;31888;44.512;26.104;2022-12-07T01:54:16;7.10;99.90
46159;DHT22;31888;44.512;26.104;2022-12-07T01:56:24;7.00;99.90
46159;DHT22;31888;44.512;26.104;2022-12-07T01:58:31;6.90;99.90
46159;DHT22;31888;44.512;26.104;2022-12-07T02:00:35;6.90;99.90
46159;DHT22;31888;44.512;26.104;2022-12-07T02:02:45;6.90;99.90
46159;DHT22;31888;44.512;26.104;2022-12-07T02:04:52;6.90;99.90
46159;DHT22;31888;44.512;26.104;2022-12-07T02:06:57;6.90;99.90
46159;DHT22;31888;44.512;26.104;2022-12-07T02:09:02;6.80;99.90
46159;DHT22;31888;44.512;26.104;2022-12-07T02:11:07;6.90;99.90
46159;DHT22;31888;44.512;26.104;2022-12-07T02:13:14;6.90;99.90
46159;DHT22;31888;44.512;26.104;2022-12-07T02:15:23;6.90;99.90
46159;DHT22;31888;44.512;26.104;2022-12-07T02:17:34;7.00;99.90
46159;DHT22;31888;44.512;26.104;2022-12-07T02:20:03;7.10;99.90
46159;DHT22;31888;44.512;26.104;2022-12-07T02:22:25;7.00;99.90
46159;DHT22;31888;44.512;26.104;2022-12-07T02:24:48;7.00;99.90
46159;DHT22;31888;44.512;26.104;2022-12-07T02:27:27;7.00;99.90
46159;DHT22;31888;44.512;26.104;2022-12-07T02:29:36;7.00;99.90
46159;DHT22;31888;44.512;26.104;2022-12-07T02:31:46;6.90;99.90
46159;DHT22;31888;44.512;26.104;2022-12-07T02:33:55;6.90;99.90
46159;DHT22;31888;44.512;26.104;2022-12-07T02:36:04;6.90;99.90
46159;DHT22;31888;44.512;26.104;2022-12-07T02:38:14;6.90;99.90
46159;DHT22;31888;44.512;26.104;2022-12-07T02:40:27;6.80;99.90
46159;DHT22;31888;44.512;26.104;2022-12-07T02:42:36;6.80;99.90
46159;DHT22;31888;44.512;26.104;2022-12-07T02:44:44;6.70;99.90
46159;DHT22;31888;44.512;26.104;2022-12-07T02:46:53;6.70;99.90
46159;DHT22;31888;44.512;26.104;2022-12-07T02:48:58;6.80;99.90
46159;DHT22;31888;44.512;26.104;2022-12-07T02:51:04;6.90;99.90
46159;DHT22;31888;44.512;26.104;2022-12-07T02:53:29;7.00;99.90
46159;DHT22;31888;44.512;26.104;2022-12-07T02:55:38;7.10;99.90
46159;DHT22;31888;44.512;26.104;2022-12-07T02:58:07;7.10;99.90
46159;DHT22;31888;44.512;26.104;2022-12-07T03:00:19;7.10;99.90
46159;DHT22;31888;44.512;26.104;2022-12-07T03:02:29;7.10;99.90
46159;DHT22;31888;44.512;26.104;2022-12-07T03:04:42;7.10;99.90
46159;DHT22;31888;44.512;26.104;2022-12-07T03:06:53;7.00;99.90
46159;DHT22;31888;44.512;26.104;2022-12-07T03:09:07;7.00;99.90
46159;DHT22;31888;44.512;26.104;2022-12-07T03:11:21;7.10;99.90
46159;DHT22;31888;44.512;26.104;2022-12-07T03:13:32;7.10;99.90
46159;DHT22;31888;44.512;26.104;2022-12-07T03:15:43;7.10;99.90
46159;DHT22;31888;44.512;26.104;2022-12-07T03:17:51;6.90;99.90
46159;DHT22;31888;44.512;26.104;2022-12-07T03:19:58;6.90;99.90
46159;DHT22;31888;44.512;26.104;2022-12-07T03:22:07;6.80;99.90
46159;DHT22;31888;44.512;26.104;2022-12-07T03:24:15;6.70;99.90
46159;DHT22;31888;44.512;26.104;2022-12-07T03:26:23;6.70;99.90
46159;DHT22;31888;44.512;26.104;2022-12-07T03:28:32;6.70;99.90
46159;DHT22;31888;44.512;26.104;2022-12-07T03:30:42;6.70;99.90
46159;DHT22;31888;44.512;26.104;2022-12-07T03:32:48;6.70;99.90
46159;DHT22;31888;44.512;26.104;2022-12-07T03:34:58;6.60;99.90
46159;DHT22;31888;44.512;26.104;2022-12-07T03:37:10;6.60;99.90
46159;DHT22;31888;44.512;26.104;2022-12-07T03:39:22;6.60;99.90
46159;DHT22;31888;44.512;26.104;2022-12-07T03:41:30;6.60;99.90
46159;DHT22;31888;44.512;26.104;2022-12-07T03:43:36;6.60;99.90
46159;DHT22;31888;44.512;26.104;2022-12-07T03:45:45;6.60;99.90
46159;DHT22;31888;44.512;26.104;2022-12-07T03:47:53;6.50;99.90
46159;DHT22;31888;44.512;26.104;2022-12-07T03:50:02;6.50;99.90
46159;DHT22;31888;44.512;26.104;2022-12-07T03:52:12;6.40;99.90
46159;DHT22;31888;44.512;26.104;2022-12-07T03:54:22;6.30;99.90
46159;DHT22;31888;44.512;26.104;2022-12-07T03:56:29;6.40;99.90
46159;DHT22;31888;44.512;26.104;2022-12-07T03:58:34;6.30;99.90
46159;DHT22;31888;44.512;26.104;2022-12-07T04:00:42;6.30;99.90
46159;DHT22;31888;44.512;26.104;2022-12-07T04:02:46;6.30;99.90
46159;DHT22;31888;44.512;26.104;2022-12-07T04:04:51;6.20;99.90
46159;DHT22;31888;44.512;26.104;2022-12-07T04:06:55;6.20;99.90
46159;DHT22;31888;44.512;26.104;2022-12-07T04:08:59;6.20;99.90
46159;DHT22;31888;44.512;26.104;2022-12-07T04:11:04;6.20;99.90
46159;DHT22;31888;44.512;26.104;2022-12-07T04:13:08;6.20;99.90
46159;DHT22;31888;44.512;26.104;2022-12-07T04:15:12;6.20;99.90
46159;DHT22;31888;44.512;26.104;2022-12-07T04:17:18;6.20;99.90
46159;DHT22;31888;44.512;26.104;2022-12-07T04:19:24;6.10;99.90
46159;DHT22;31888;44.512;26.104;2022-12-07T04:21:28;6.20;99.90
46159;DHT22;31888;44.512;26.104;2022-12-07T04:23:33;6.20;99.90
46159;DHT22;31888;44.512;26.104;2022-12-07T04:25:37;6.30;99.90
46159;DHT22;31888;44.512;26.104;2022-12-07T04:27:41;6.40;99.90
46159;DHT22;31888;44.512;26.104;2022-12-07T04:29:45;6.40;99.90
46159;DHT22;31888;44.512;26.104;2022-12-07T04:31:50;6.60;99.90
46159;DHT22;31888;44.512;26.104;2022-12-07T04:33:55;6.60;99.90
46159;DHT22;31888;44.512;26.104;2022-12-07T04:36:00;6.60;99.90
46159;DHT22;31888;44.512;26.104;2022-12-07T04:38:04;6.70;99.90
46159;DHT22;31888;44.512;26.104;2022-12-07T04:40:10;6.70;99.90
46159;DHT22;31888;44.512;26.104;2022-12-07T04:42:15;6.70;99.90
46159;DHT22;31888;44.512;26.104;2022-12-07T04:44:20;6.70;99.90
46159;DHT22;31888;44.512;26.104;2022-12-07T04:46:26;6.80;99.90
46159;DHT22;31888;44.512;26.104;2022-12-07T04:48:30;6.80;99.90
46159;DHT22;31888;44.512;26.104;2022-12-07T04:50:36;6.80;99.90
46159;DHT22;31888;44.512;26.104;2022-12-07T04:52:47;6.70;99.90
46159;DHT22;31888;44.512;26.104;2022-12-07T04:54:52;6.80;99.90
46159;DHT22;31888;44.512;26.104;2022-12-07T04:56:56;6.70;99.90
46159;DHT22;31888;44.512;26.104;2022-12-07T04:59:00;6.60;99.90
46159;DHT22;31888;44.512;26.104;2022-12-07T05:01:04;6.60;99.90
46159;DHT22;31888;44.512;26.104;2022-12-07T05:03:09;6.60;99.90
46159;DHT22;31888;44.512;26.104;2022-12-07T05:05:13;6.60;99.90
46159;DHT22;31888;44.512;26.104;2022-12-07T05:07:18;6.50;99.90
46159;DHT22;31888;44.512;26.104;2022-12-07T05:09:23;6.50;99.90
46159;DHT22;31888;44.512;26.104;2022-12-07T05:11:27;6.50;99.90
46159;DHT22;31888;44.512;26.104;2022-12-07T05:13:43;6.50;99.90
46159;DHT22;31888;44.512;26.104;2022-12-07T05:15:48;6.50;99.90
46159;DHT22;31888;44.512;26.104;2022-12-07T05:17:52;6.50;99.90
46159;DHT22;31888;44.512;26.104;2022-12-07T05:19:56;6.50;99.90
46159;DHT22;31888;44.512;26.104;2022-12-07T05:22:01;6.60;99.90
46159;DHT22;31888;44.512;26.104;2022-12-07T05:24:07;6.60;99.90
46159;DHT22;31888;44.512;26.104;2022-12-07T05:26:12;6.50;99.90
46159;DHT22;31888;44.512;26.104;2022-12-07T05:28:16;6.50;99.90
46159;DHT22;31888;44.512;26.104;2022-12-07T05:30:20;6.60;99.90
46159;DHT22;31888;44.512;26.104;2022-12-07T05:32:25;6.50;99.90
46159;DHT22;31888;44.512;26.104;2022-12-07T05:34:29;6.40;99.90
46159;DHT22;31888;44.512;26.104;2022-12-07T05:36:33;6.40;99.90
46159;DHT22;31888;44.512;26.104;2022-12-07T05:38:37;6.40;99.90
46159;DHT22;31888;44.512;26.104;2022-12-07T05:40:43;6.30;99.90
46159;DHT22;31888;44.512;26.104;2022-12-07T05:42:47;6.20;99.90
46159;DHT22;31888;44.512;26.104;2022-12-07T05:44:50;6.20;99.90
46159;DHT22;31888;44.512;26.104;2022-12-07T05:46:54;6.10;99.90
46159;DHT22;31888;44.512;26.104;2022-12-07T05:48:59;6.20;99.90
46159;DHT22;31888;44.512;26.104;2022-12-07T05:51:03;6.20;99.90
46159;DHT22;31888;44.512;26.104;2022-12-07T05:53:07;6.30;99.90
46159;DHT22;31888;44.512;26.104;2022-12-07T05:55:11;6.20;99.90
46159;DHT22;31888;44.512;26.104;2022-12-07T05:57:17;6.10;99.90
46159;DHT22;31888;44.512;26.104;2022-12-07T05:59:21;6.20;99.90
46159;DHT22;31888;44.512;26.104;2022-12-07T06:01:29;6.10;99.90
46159;DHT22;31888;44.512;26.104;2022-12-07T06:03:33;6.20;99.90
46159;DHT22;31888;44.512;26.104;2022-12-07T06:05:38;6.10;99.90
46159;DHT22;31888;44.512;26.104;2022-12-07T06:07:42;6.10;99.90
46159;DHT22;31888;44.512;26.104;2022-12-07T06:09:46;6.20;99.90
46159;DHT22;31888;44.512;26.104;2022-12-07T06:11:51;6.20;99.90
46159;DHT22;31888;44.512;26.104;2022-12-07T06:14:14;6.20;99.90
46159;DHT22;31888;44.512;26.104;2022-12-07T06:16:18;6.10;99.90
46159;DHT22;31888;44.512;26.104;2022-12-07T06:18:22;6.00;99.90
46159;DHT22;31888;44.512;26.104;2022-12-07T06:20:27;6.00;99.90
46159;DHT22;31888;44.512;26.104;2022-12-07T06:22:31;6.00;99.90
46159;DHT22;31888;44.512;26.104;2022-12-07T06:24:35;6.10;99.90
46159;DHT22;31888;44.512;26.104;2022-12-07T06:26:40;6.00;99.90
46159;DHT22;31888;44.512;26.104;2022-12-07T06:28:44;5.90;99.90
46159;DHT22;31888;44.512;26.104;2022-12-07T06:30:58;5.90;99.90
46159;DHT22;31888;44.512;26.104;2022-12-07T06:33:02;5.90;99.90
46159;DHT22;31888;44.512;26.104;2022-12-07T06:35:07;5.90;99.90
46159;DHT22;31888;44.512;26.104;2022-12-07T06:37:12;5.90;99.90
46159;DHT22;31888;44.512;26.104;2022-12-07T06:39:16;5.90;99.90
46159;DHT22;31888;44.512;26.104;2022-12-07T06:41:21;5.90;99.90
46159;DHT22;31888;44.512;26.104;2022-12-07T06:43:25;6.00;99.90
46159;DHT22;31888;44.512;26.104;2022-12-07T06:45:30;6.10;99.90
46159;DHT22;31888;44.512;26.104;2022-12-07T06:47:36;6.10;99.90
46159;DHT22;31888;44.512;26.104;2022-12-07T06:49:47;6.10;99.90
46159;DHT22;31888;44.512;26.104;2022-12-07T06:51:52;6.00;99.90
46159;DHT22;31888;44.512;26.104;2022-12-07T06:53:56;5.90;99.90
46159;DHT22;31888;44.512;26.104;2022-12-07T06:56:00;6.00;99.90
46159;DHT22;31888;44.512;26.104;2022-12-07T06:58:05;6.00;99.90
46159;DHT22;31888;44.512;26.104;2022-12-07T07:00:10;6.00;99.90
46159;DHT22;31888;44.512;26.104;2022-12-07T07:02:23;6.00;99.90
46159;DHT22;31888;44.512;26.104;2022-12-07T07:04:29;6.00;99.90
46159;DHT22;31888;44.512;26.104;2022-12-07T07:06:33;5.90;99.90
46159;DHT22;31888;44.512;26.104;2022-12-07T07:08:38;6.00;99.90
46159;DHT22;31888;44.512;26.104;2022-12-07T07:10:43;6.10;99.90
46159;DHT22;31888;44.512;26.104;2022-12-07T07:12:47;6.20;99.90
46159;DHT22;31888;44.512;26.104;2022-12-07T07:14:58;6.30;99.90
46159;DHT22;31888;44.512;26.104;2022-12-07T07:17:06;6.40;99.90
46159;DHT22;31888;44.512;26.104;2022-12-07T07:19:10;6.60;99.90
46159;DHT22;31888;44.512;26.104;2022-12-07T07:21:16;6.60;99.90
46159;DHT22;31888;44.512;26.104;2022-12-07T07:23:21;6.60;99.90
46159;DHT22;31888;44.512;26.104;2022-12-07T07:25:25;6.70;99.90
46159;DHT22;31888;44.512;26.104;2022-12-07T07:27:29;6.60;99.90
46159;DHT22;31888;44.512;26.104;2022-12-07T07:29:33;6.50;99.90
46159;DHT22;31888;44.512;26.104;2022-12-07T07:31:37;6.60;99.90
46159;DHT22;31888;44.512;26.104;2022-12-07T07:33:42;6.60;99.90
46159;DHT22;31888;44.512;26.104;2022-12-07T07:35:46;6.60;99.90
46159;DHT22;31888;44.512;26.104;2022-12-07T07:37:52;6.60;99.90
46159;DHT22;31888;44.512;26.104;2022-12-07T07:39:56;6.60;99.90
46159;DHT22;31888;44.512;26.104;2022-12-07T07:42:00;6.70;99.90
46159;DHT22;31888;44.512;26.104;2022-12-07T07:44:07;6.70;99.90
46159;DHT22;31888;44.512;26.104;2022-12-07T07:46:11;6.60;99.90
46159;DHT22;31888;44.512;26.104;2022-12-07T07:48:16;6.50;99.90
46159;DHT22;31888;44.512;26.104;2022-12-07T07:50:21;6.50;99.90
46159;DHT22;31888;44.512;26.104;2022-12-07T07:52:27;6.40;99.90
46159;DHT22;31888;44.512;26.104;2022-12-07T07:54:33;6.40;99.90
46159;DHT22;31888;44.512;26.104;2022-12-07T07:56:37;6.40;99.90
46159;DHT22;31888;44.512;26.104;2022-12-07T07:58:42;6.30;99.90
46159;DHT22;31888;44.512;26.104;2022-12-07T08:00:46;6.30;99.90
46159;DHT22;31888;44.512;26.104;2022-12-07T08:02:50;6.30;99.90
46159;DHT22;31888;44.512;26.104;2022-12-07T08:04:55;6.30;99.90
46159;DHT22;31888;44.512;26.104;2022-12-07T08:06:59;6.30;99.90
46159;DHT22;31888;44.512;26.104;2022-12-07T08:09:03;6.40;99.90
46159;DHT22;31888;44.512;26.104;2022-12-07T08:11:10;6.30;99.90
46159;DHT22;31888;44.512;26.104;2022-12-07T08:13:15;6.40;99.90
46159;DHT22;31888;44.512;26.104;2022-12-07T08:15:20;6.40;99.90
46159;DHT22;31888;44.512;26.104;2022-12-07T08:17:25;6.50;99.90
46159;DHT22;31888;44.512;26.104;2022-12-07T08:19:29;6.60;99.90
46159;DHT22;31888;44.512;26.104;2022-12-07T08:21:34;6.70;99.90
46159;DHT22;31888;44.512;26.104;2022-12-07T08:23:38;6.80;99.90
46159;DHT22;31888;44.512;26.104;2022-12-07T08:25:42;6.80;99.90
46159;DHT22;31888;44.512;26.104;2022-12-07T08:27:48;6.90;99.90
46159;DHT22;31888;44.512;26.104;2022-12-07T08:29:53;6.70;99.90
46159;DHT22;31888;44.512;26.104;2022-12-07T08:31:57;6.60;99.90
46159;DHT22;31888;44.512;26.104;2022-12-07T08:34:11;6.40;99.90
46159;DHT22;31888;44.512;26.104;2022-12-07T08:36:16;6.40;99.90
46159;DHT22;31888;44.512;26.104;2022-12-07T08:38:20;6.50;99.90
46159;DHT22;31888;44.512;26.104;2022-12-07T08:40:30;6.50;99.90
46159;DHT22;31888;44.512;26.104;2022-12-07T08:42:35;6.50;99.90
46159;DHT22;31888;44.512;26.104;2022-12-07T08:44:45;6.50;99.90
46159;DHT22;31888;44.512;26.104;2022-12-07T08:46:52;6.50;99.90
46159;DHT22;31888;44.512;26.104;2022-12-07T08:49:01;6.40;99.90
46159;DHT22;31888;44.512;26.104;2022-12-07T08:51:06;6.50;99.90
46159;DHT22;31888;44.512;26.104;2022-12-07T08:53:11;6.50;99.90
46159;DHT22;31888;44.512;26.104;2022-12-07T08:55:15;6.50;99.90
46159;DHT22;31888;44.512;26.104;2022-12-07T08:57:20;6.60;99.90
46159;DHT22;31888;44.512;26.104;2022-12-07T08:59:25;6.60;99.90
46159;DHT22;31888;44.512;26.104;2022-12-07T09:01:31;6.50;99.90
46159;DHT22;31888;44.512;26.104;2022-12-07T09:03:36;6.40;99.90
46159;DHT22;31888;44.512;26.104;2022-12-07T09:05:41;6.20;99.90
46159;DHT22;31888;44.512;26.104;2022-12-07T09:07:48;6.10;99.90
46159;DHT22;31888;44.512;26.104;2022-12-07T09:09:54;6.00;99.90
46159;DHT22;31888;44.512;26.104;2022-12-07T09:11:58;6.00;99.90
46159;DHT22;31888;44.512;26.104;2022-12-07T09:14:03;6.00;99.90
46159;DHT22;31888;44.512;26.104;2022-12-07T09:16:07;6.10;99.90
46159;DHT22;31888;44.512;26.104;2022-12-07T09:18:13;6.10;99.90
46159;DHT22;31888;44.512;26.104;2022-12-07T09:20:17;6.20;99.90
46159;DHT22;31888;44.512;26.104;2022-12-07T09:22:29;6.30;99.90
46159;DHT22;31888;44.512;26.104;2022-12-07T09:24:34;6.40;99.90
46159;DHT22;31888;44.512;26.104;2022-12-07T09:26:38;6.40;99.90
46159;DHT22;31888;44.512;26.104;2022-12-07T09:28:43;6.30;99.90
46159;DHT22;31888;44.512;26.104;2022-12-07T09:30:48;6.30;99.90
46159;DHT22;31888;44.512;26.104;2022-12-07T09:33:14;6.20;99.90
46159;DHT22;31888;44.512;26.104;2022-12-07T09:35:19;6.30;99.90
46159;DHT22;31888;44.512;26.104;2022-12-07T09:37:23;6.40;99.90
46159;DHT22;31888;44.512;26.104;2022-12-07T09:39:28;6.40;99.90
46159;DHT22;31888;44.512;26.104;2022-12-07T09:41:32;6.50;99.90
46159;DHT22;31888;44.512;26.104;2022-12-07T09:43:39;6.50;99.90
46159;DHT22;31888;44.512;26.104;2022-12-07T09:45:44;6.50;99.90
46159;DHT22;31888;44.512;26.104;2022-12-07T09:47:50;6.50;99.90
46159;DHT22;31888;44.512;26.104;2022-12-07T09:50:03;6.60;99.90
46159;DHT22;31888;44.512;26.104;2022-12-07T09:52:18;6.70;99.90
46159;DHT22;31888;44.512;26.104;2022-12-07T09:54:23;6.70;99.90
46159;DHT22;31888;44.512;26.104;2022-12-07T09:56:29;6.80;99.90
46159;DHT22;31888;44.512;26.104;2022-12-07T09:58:34;6.70;99.90
46159;DHT22;31888;44.512;26.104;2022-12-07T10:00:39;6.60;99.90
46159;DHT22;31888;44.512;26.104;2022-12-07T10:02:46;6.60;99.90
46159;DHT22;31888;44.512;26.104;2022-12-07T10:04:52;6.60;99.90
46159;DHT22;31888;44.512;26.104;2022-12-07T10:06:58;6.80;99.90
46159;DHT22;31888;44.512;26.104;2022-12-07T10:09:08;6.90;99.90
46159;DHT22;31888;44.512;26.104;2022-12-07T10:11:12;6.90;99.90
46159;DHT22;31888;44.512;26.104;2022-12-07T10:13:21;7.00;99.90
46159;DHT22;31888;44.512;26.104;2022-12-07T10:15:45;6.90;99.90
46159;DHT22;31888;44.512;26.104;2022-12-07T10:17:51;6.90;99.90
46159;DHT22;31888;44.512;26.104;2022-12-07T10:20:13;7.10;99.90
46159;DHT22;31888;44.512;26.104;2022-12-07T10:22:19;7.20;99.90
46159;DHT22;31888;44.512;26.104;2022-12-07T10:24:28;7.30;99.90
46159;DHT22;31888;44.512;26.104;2022-12-07T10:26:33;7.30;99.90
46159;DHT22;31888;44.512;26.104;2022-12-07T10:28:38;7.30;99.90
46159;DHT22;31888;44.512;26.104;2022-12-07T10:30:53;7.30;99.90
46159;DHT22;31888;44.512;26.104;2022-12-07T10:32:59;7.30;99.90
46159;DHT22;31888;44.512;26.104;2022-12-07T10:35:26;7.20;99.90
46159;DHT22;31888;44.512;26.104;2022-12-07T10:37:40;7.20;99.90
46159;DHT22;31888;44.512;26.104;2022-12-07T10:39:46;7.30;99.90
46159;DHT22;31888;44.512;26.104;2022-12-07T10:41:55;7.30;99.90
46159;DHT22;31888;44.512;26.104;2022-12-07T10:44:00;7.30;99.90
46159;DHT22;31888;44.512;26.104;2022-12-07T10:48:55;7.10;99.90
46159;DHT22;31888;44.512;26.104;2022-12-07T10:51:10;7.20;99.90
46159;DHT22;31888;44.512;26.104;2022-12-07T10:53:31;7.20;99.90
46159;DHT22;31888;44.512;26.104;2022-12-07T10:55:50;7.10;99.90
46159;DHT22;31888;44.512;26.104;2022-12-07T10:58:16;7.10;99.90
46159;DHT22;31888;44.512;26.104;2022-12-07T11:00:26;7.10;99.90
46159;DHT22;31888;44.512;26.104;2022-12-07T11:05:23;7.10;99.90
46159;DHT22;31888;44.512;26.104;2022-12-07T11:07:40;7.20;99.90
46159;DHT22;31888;44.512;26.104;2022-12-07T11:10:02;7.40;99.90
46159;DHT22;31888;44.512;26.104;2022-12-07T11:12:18;7.40;99.90
46159;DHT22;31888;44.512;26.104;2022-12-07T11:14:34;7.40;99.90
46159;DHT22;31888;44.512;26.104;2022-12-07T11:16:55;7.30;99.90
46159;DHT22;31888;44.512;26.104;2022-12-07T11:19:19;7.30;99.90
46159;DHT22;31888;44.512;26.104;2022-12-07T11:21:35;7.30;99.90
46159;DHT22;31888;44.512;26.104;2022-12-07T11:23:49;7.30;99.90
46159;DHT22;31888;44.512;26.104;2022-12-07T11:26:02;7.30;99.90
46159;DHT22;31888;44.512;26.104;2022-12-07T11:28:19;7.30;99.90
46159;DHT22;31888;44.512;26.104;2022-12-07T11:30:30;7.30;99.90
46159;DHT22;31888;44.512;26.104;2022-12-07T11:32:58;7.30;99.90
46159;DHT22;31888;44.512;26.104;2022-12-07T11:35:09;7.30;99.90
46159;DHT22;31888;44.512;26.104;2022-12-07T11:37:20;7.40;99.90
46159;DHT22;31888;44.512;26.104;2022-12-07T11:39:28;7.40;99.90
46159;DHT22;31888;44.512;26.104;2022-12-07T11:41:38;7.30;99.90
46159;DHT22;31888;44.512;26.104;2022-12-07T11:43:54;7.30;99.90
46159;DHT22;31888;44.512;26.104;2022-12-07T11:46:03;7.30;99.90
46159;DHT22;31888;44.512;26.104;2022-12-07T11:48:14;7.30;99.90
46159;DHT22;31888;44.512;26.104;2022-12-07T11:50:27;7.30;99.90
46159;DHT22;31888;44.512;26.104;2022-12-07T11:52:43;7.20;99.90
46159;DHT22;31888;44.512;26.104;2022-12-07T11:54:50;7.10;99.90
46159;DHT22;31888;44.512;26.104;2022-12-07T11:57:02;7.10;99.90
46159;DHT22;31888;44.512;26.104;2022-12-07T11:59:12;7.00;99.90
46159;DHT22;31888;44.512;26.104;2022-12-07T12:01:31;7.10;99.90
46159;DHT22;31888;44.512;26.104;2022-12-07T12:03:41;7.10;99.90
46159;DHT22;31888;44.512;26.104;2022-12-07T12:05:54;7.20;99.90
46159;DHT22;31888;44.512;26.104;2022-12-07T12:08:04;7.10;99.90
46159;DHT22;31888;44.512;26.104;2022-12-07T12:10:37;7.10;99.90
46159;DHT22;31888;44.512;26.104;2022-12-07T12:13:00;7.10;99.90
46159;DHT22;31888;44.512;26.104;2022-12-07T12:15:42;7.10;99.90
46159;DHT22;31888;44.512;26.104;2022-12-07T12:20:36;7.20;99.90
46159;DHT22;31888;44.512;26.104;2022-12-07T12:22:46;7.30;99.90
46159;DHT22;31888;44.512;26.104;2022-12-07T12:24:53;7.30;99.90
46159;DHT22;31888;44.512;26.104;2022-12-07T12:27:02;7.30;99.90
46159;DHT22;31888;44.512;26.104;2022-12-07T12:29:21;7.40;99.90
46159;DHT22;31888;44.512;26.104;2022-12-07T12:31:33;7.40;99.90
46159;DHT22;31888;44.512;26.104;2022-12-07T12:33:44;7.40;99.90
46159;DHT22;31888;44.512;26.104;2022-12-07T12:36:18;7.40;99.90
46159;DHT22;31888;44.512;26.104;2022-12-07T12:38:32;7.40;99.90
46159;DHT22;31888;44.512;26.104;2022-12-07T12:40:41;7.30;99.90
46159;DHT22;31888;44.512;26.104;2022-12-07T12:42:54;7.30;99.90
46159;DHT22;31888;44.512;26.104;2022-12-07T12:45:18;7.40;99.90
46159;DHT22;31888;44.512;26.104;2022-12-07T12:50:17;7.30;99.90
46159;DHT22;31888;44.512;26.104;2022-12-07T12:55:14;7.10;99.90
46159;DHT22;31888;44.512;26.104;2022-12-07T12:57:27;7.00;99.90
46159;DHT22;31888;44.512;26.104;2022-12-07T12:59:33;6.90;99.90
46159;DHT22;31888;44.512;26.104;2022-12-07T13:01:42;6.80;99.90
46159;DHT22;31888;44.512;26.104;2022-12-07T13:03:54;6.90;99.90
46159;DHT22;31888;44.512;26.104;2022-12-07T13:06:17;7.00;99.90
46159;DHT22;31888;44.512;26.104;2022-12-07T13:08:25;7.10;99.90
46159;DHT22;31888;44.512;26.104;2022-12-07T13:10:44;7.20;99.90
46159;DHT22;31888;44.512;26.104;2022-12-07T13:12:56;7.10;99.90
46159;DHT22;31888;44.512;26.104;2022-12-07T13:15:00;7.20;99.90
46159;DHT22;31888;44.512;26.104;2022-12-07T13:17:10;7.10;99.90
46159;DHT22;31888;44.512;26.104;2022-12-07T13:19:53;7.20;99.90
46159;DHT22;31888;44.512;26.104;2022-12-07T13:21:57;7.30;99.90
46159;DHT22;31888;44.512;26.104;2022-12-07T13:24:06;7.30;99.90
46159;DHT22;31888;44.512;26.104;2022-12-07T13:26:17;7.40;99.90
46159;DHT22;31888;44.512;26.104;2022-12-07T13:28:23;7.40;99.90
46159;DHT22;31888;44.512;26.104;2022-12-07T13:30:30;7.40;99.90
46159;DHT22;31888;44.512;26.104;2022-12-07T13:32:36;7.40;99.90
46159;DHT22;31888;44.512;26.104;2022-12-07T13:34:41;7.50;99.90
46159;DHT22;31888;44.512;26.104;2022-12-07T13:36:46;7.50;99.90
46159;DHT22;31888;44.512;26.104;2022-12-07T13:38:57;7.40;99.90
46159;DHT22;31888;44.512;26.104;2022-12-07T13:41:04;7.40;99.90
46159;DHT22;31888;44.512;26.104;2022-12-07T13:43:14;7.50;99.90